Time;durP1;ratioP1;P1;durP2;ratioP2;P2;SDS_P1;SDS_P2;PMS_P1;PMS_P2;Temp;Humidity;BMP_temperature;BMP_pressure;BME280_temperature;BME280_humidity;BME280_pressure;Samples;Min_cycle;Max_cycle;Signal;HPM_P1;HPM_P2
2022/06/13 00:00:57;;;;;;;3.58;2.33;;;;;;;;;;4989445;28;20024;-68
2022/06/13 00:03:22;;;;;;;3.13;2.30;;;;;;;;;;4987637;28;20055;-67
2022/06/13 00:05:48;;;;;;;2.78;2.08;;;;;;;;;;4988312;28;20368;-67
2022/06/13 00:08:14;;;;;;;3.75;2.20;;;;;;;;;;4987551;28;20545;-67
2022/06/13 00:10:39;;;;;;;3.08;2.03;;;;;;;;;;4988350;28;20475;-67
2022/06/13 00:13:05;;;;;;;2.53;2.05;;;;;;;;;;4990303;28;20336;-68
2022/06/13 00:15:30;;;;;;;2.45;2.25;;;;;;;;;;4988326;28;20435;-68
2022/06/13 00:17:56;;;;;;;3.33;1.88;;;;;;;;;;4989580;28;20432;-67
2022/06/13 00:20:21;;;;;;;3.80;2.70;;;;;;;;;;4988869;28;20049;-67
2022/06/13 00:22:47;;;;;;;2.72;2.03;;;;;;;;;;5005129;28;20440;-67
2022/06/13 00:25:12;;;;;;;3.17;2.10;;;;;;;;;;4987917;28;20432;-67
2022/06/13 00:27:38;;;;;;;3.10;2.15;;;;;;;;;;4987948;28;20355;-67
2022/06/13 00:30:06;;;;;;;2.03;1.70;;;;;;;;;;4987473;28;20371;-67
2022/06/13 00:32:31;;;;;;;2.50;1.92;;;;;;;;;;4987790;28;20370;-67
2022/06/13 00:34:57;;;;;;;2.10;1.77;;;;;;;;;;4987856;28;20032;-67
2022/06/13 00:37:22;;;;;;;2.90;2.00;;;;;;;;;;4987986;28;20491;-67
2022/06/13 00:39:48;;;;;;;4.13;2.03;;;;;;;;;;4988929;28;21085;-68
2022/06/13 00:42:21;;;;;;;3.25;2.00;;;;;;;;;;4988685;28;20368;-67
2022/06/13 00:45:05;;;;;;;2.67;1.70;;;;;;;;;;4989258;28;20482;-67
2022/06/13 00:47:30;;;;;;;3.30;1.98;;;;;;;;;;4988604;28;20387;-67
2022/06/13 00:49:57;;;;;;;2.72;2.25;;;;;;;;;;4988267;28;20408;-67
2022/06/13 00:52:46;;;;;;;2.65;2.13;;;;;;;;;;4989988;28;20047;-68
2022/06/13 00:55:14;;;;;;;2.45;1.90;;;;;;;;;;4987976;28;20376;-67
2022/06/13 00:57:39;;;;;;;2.15;1.88;;;;;;;;;;4987572;28;20486;-67
2022/06/13 01:00:09;;;;;;;2.80;2.00;;;;;;;;;;4981567;28;20405;-67
2022/06/13 01:02:38;;;;;;;3.38;2.00;;;;;;;;;;4973086;28;20428;-67
2022/06/13 01:05:03;;;;;;;2.80;2.03;;;;;;;;;;4948120;28;20531;-69
2022/06/13 01:07:29;;;;;;;2.40;2.00;;;;;;;;;;4949750;28;20455;-67
2022/06/13 01:12:40;;;;;;;3.30;2.35;;;;;;;;;;4949578;28;20468;-68
2022/06/13 01:15:23;;;;;;;2.55;1.77;;;;;;;;;;4948005;28;20429;-67
2022/06/13 01:18:07;;;;;;;2.95;1.75;;;;;;;;;;4949179;28;20038;-67
2022/06/13 01:20:46;;;;;;;2.13;1.92;;;;;;;;;;4957293;28;20364;-67
2022/06/13 01:23:14;;;;;;;;;;;;;;;;;;4951643;28;20442;-67
2022/06/13 01:26:21;;;;;;;2.22;1.63;;;;;;;;;;4968886;28;20415;-67
2022/06/13 01:29:00;;;;;;;2.20;1.95;;;;;;;;;;4973093;28;20414;-67
2022/06/13 01:31:52;;;;;;;2.92;2.30;;;;;;;;;;4954616;28;20340;-67
2022/06/13 01:34:44;;;;;;;3.15;2.28;;;;;;;;;;4939516;28;20487;-67
2022/06/13 01:37:21;;;;;;;4.30;2.05;;;;;;;;;;4955202;28;20460;-69
2022/06/13 01:40:09;;;;;;;2.55;1.90;;;;;;;;;;4972684;28;20451;-67
2022/06/13 01:42:54;;;;;;;2.00;1.70;;;;;;;;;;4972629;28;20428;-67
2022/06/13 01:45:39;;;;;;;2.40;1.65;;;;;;;;;;4954898;28;20571;-67
2022/06/13 01:48:26;;;;;;;2.97;2.10;;;;;;;;;;4955412;28;20421;-67
2022/06/13 01:51:01;;;;;;;2.38;1.90;;;;;;;;;;4972054;28;20549;-67
2022/06/13 01:53:51;;;;;;;2.38;2.13;;;;;;;;;;4954893;28;20471;-67
2022/06/13 01:56:20;;;;;;;3.13;2.00;;;;;;;;;;4955038;28;20336;-68
2022/06/13 01:58:47;;;;;;;3.40;1.83;;;;;;;;;;4954178;28;20412;-68
2022/06/13 02:01:28;;;;;;;2.80;1.77;;;;;;;;;;4954375;28;20069;-67
2022/06/13 02:04:18;;;;;;;2.38;1.73;;;;;;;;;;4971808;28;20543;-67
2022/06/13 02:07:06;;;;;;;2.72;1.88;;;;;;;;;;4954165;28;20321;-67
2022/06/13 02:09:37;;;;;;;2.80;2.15;;;;;;;;;;4958291;28;20399;-67
2022/06/13 02:12:02;;;;;;;2.85;1.90;;;;;;;;;;4954160;28;20428;-67
2022/06/13 02:14:35;;;;;;;5.00;2.10;;;;;;;;;;4973267;28;20376;-68
2022/06/13 02:17:11;;;;;;;2.42;2.00;;;;;;;;;;4954845;28;20417;-67
2022/06/13 02:20:05;;;;;;;3.60;2.42;;;;;;;;;;4971229;28;20432;-68
2022/06/13 02:22:51;;;;;;;2.47;1.98;;;;;;;;;;4971240;28;20464;-67
2022/06/13 02:25:24;;;;;;;2.00;1.75;;;;;;;;;;4954866;28;20497;-67
2022/06/13 02:28:17;;;;;;;3.08;2.08;;;;;;;;;;4953796;28;20418;-68
2022/06/13 02:30:50;;;;;;;2.42;2.05;;;;;;;;;;4954181;28;20466;-67
2022/06/13 02:33:22;;;;;;;3.17;2.17;;;;;;;;;;4971081;28;20453;-67
2022/06/13 02:35:51;;;;;;;3.00;1.95;;;;;;;;;;4971527;28;20474;-67
2022/06/13 02:38:16;;;;;;;;;;;;;;;;;;4953289;28;20061;-67
2022/06/13 02:40:46;;;;;;;2.63;1.98;;;;;;;;;;4971352;28;20461;-67
2022/06/13 02:43:15;;;;;;;2.63;2.30;;;;;;;;;;4953775;28;20336;-67
2022/06/13 02:45:53;;;;;;;2.88;2.15;;;;;;;;;;4971447;28;20444;-67
2022/06/13 02:48:36;;;;;;;3.40;2.47;;;;;;;;;;4953806;28;20052;-67
2022/06/13 02:51:27;;;;;;;3.88;2.30;;;;;;;;;;4971158;28;20479;-67
2022/06/13 02:54:22;;;;;;;3.45;2.15;;;;;;;;;;4970632;28;20410;-67
2022/06/13 02:57:24;;;;;;;2.60;2.08;;;;;;;;;;4971841;28;20547;-68
2022/06/13 03:00:08;;;;;;;2.53;1.73;;;;;;;;;;4970583;28;20432;-68
2022/06/13 03:02:47;;;;;;;2.17;1.90;;;;;;;;;;4971259;28;20033;-68
2022/06/13 03:05:37;;;;;;;7.22;2.40;;;;;;;;;;4953455;28;20026;-68
2022/06/13 03:08:31;;;;;;;2.80;1.88;;;;;;;;;;4954048;28;20155;-67
2022/06/13 03:10:56;;;;;;;3.08;2.17;;;;;;;;;;4953034;28;20324;-67
2022/06/13 03:13:44;;;;;;;2.17;1.88;;;;;;;;;;4971610;28;20388;-67
2022/06/13 03:16:23;;;;;;;6.90;2.00;;;;;;;;;;4936904;28;20460;-67
2022/06/13 03:18:52;;;;;;;2.58;2.03;;;;;;;;;;4952904;28;20310;-67
2022/06/13 03:21:27;;;;;;;2.90;1.90;;;;;;;;;;4949653;28;20360;-67
2022/06/13 03:24:04;;;;;;;2.55;2.00;;;;;;;;;;4950191;28;20403;-68
2022/06/13 03:26:34;;;;;;;2.50;1.67;;;;;;;;;;4949468;28;20505;-67
2022/06/13 03:29:08;;;;;;;2.20;2.00;;;;;;;;;;4949598;28;20456;-67
2022/06/13 03:31:57;;;;;;;3.38;2.30;;;;;;;;;;4953367;28;20334;-67
2022/06/13 03:34:33;;;;;;;2.92;1.90;;;;;;;;;;4949535;28;20468;-67
2022/06/13 03:37:12;;;;;;;2.55;1.88;;;;;;;;;;4933278;28;20416;-67
2022/06/13 03:39:42;;;;;;;2.08;1.42;;;;;;;;;;4949358;28;20310;-67
2022/06/13 03:42:15;;;;;;;3.97;2.30;;;;;;;;;;4949264;28;20117;-68
2022/06/13 03:44:53;;;;;;;3.35;1.80;;;;;;;;;;4950664;28;20461;-67
2022/06/13 03:47:31;;;;;;;2.45;1.65;;;;;;;;;;4950273;28;20393;-68
2022/06/13 03:50:02;;;;;;;2.67;1.80;;;;;;;;;;4950397;28;20464;-68
2022/06/13 03:52:29;;;;;;;2.78;1.80;;;;;;;;;;4951753;28;20692;-67
2022/06/13 03:55:00;;;;;;;2.78;1.90;;;;;;;;;;4949171;28;20348;-67
2022/06/13 03:57:36;;;;;;;2.28;1.85;;;;;;;;;;4949112;28;20034;-68
2022/06/13 04:00:10;;;;;;;3.42;1.70;;;;;;;;;;4948763;28;20472;-67
2022/06/13 04:02:37;;;;;;;2.15;1.67;;;;;;;;;;4948780;28;20452;-67
2022/06/13 04:05:03;;;;;;;2.42;1.77;;;;;;;;;;4948931;28;20341;-67
2022/06/13 04:07:33;;;;;;;3.55;1.60;;;;;;;;;;4950329;28;20330;-67
2022/06/13 04:10:08;;;;;;;2.08;1.63;;;;;;;;;;4948887;28;20080;-68
2022/06/13 04:13:05;;;;;;;2.58;1.70;;;;;;;;;;4948854;28;20518;-67
2022/06/13 04:15:48;;;;;;;2.10;1.90;;;;;;;;;;4927779;28;20064;-67
2022/06/13 04:18:44;;;;;;;2.97;2.03;;;;;;;;;;4951056;28;20448;-67
2022/06/13 04:21:29;;;;;;;2.58;1.80;;;;;;;;;;4962445;28;20468;-67
2022/06/13 04:24:29;;;;;;;2.17;1.70;;;;;;;;;;4952034;28;20410;-67
2022/06/13 04:27:01;;;;;;;1.77;1.65;;;;;;;;;;4951727;28;20025;-67
2022/06/13 04:29:34;;;;;;;2.38;1.98;;;;;;;;;;4969353;28;20436;-67
2022/06/13 04:32:02;;;;;;;2.47;1.83;;;;;;;;;;4936211;28;20026;-69
2022/06/13 04:34:32;;;;;;;2.22;1.70;;;;;;;;;;4969211;28;20029;-67
2022/06/13 04:36:58;;;;;;;3.72;1.90;;;;;;;;;;4951898;28;20456;-67
2022/06/13 04:39:27;;;;;;;3.03;1.95;;;;;;;;;;4952205;28;20029;-67
2022/06/13 04:41:54;;;;;;;2.88;2.03;;;;;;;;;;4951265;28;20505;-67
2022/06/13 04:44:21;;;;;;;2.15;1.88;;;;;;;;;;4951559;28;20465;-67
2022/06/13 04:46:48;;;;;;;2.25;2.00;;;;;;;;;;4968920;28;20324;-67
2022/06/13 04:49:32;;;;;;;2.42;1.90;;;;;;;;;;4951621;28;20088;-67
2022/06/13 04:52:00;;;;;;;3.42;1.80;;;;;;;;;;4951704;28;20413;-67
2022/06/13 04:54:42;;;;;;;2.37;1.70;;;;;;;;;;4951686;28;20444;-67
2022/06/13 04:57:11;;;;;;;2.00;1.58;;;;;;;;;;4951923;28;20419;-67
2022/06/13 04:59:37;;;;;;;3.25;1.80;;;;;;;;;;4951256;28;20029;-69
2022/06/13 05:02:03;;;;;;;2.40;1.70;;;;;;;;;;4953457;28;20474;-67
2022/06/13 05:04:30;;;;;;;2.25;1.67;;;;;;;;;;4955486;28;20435;-67
2022/06/13 05:06:58;;;;;;;1.95;1.75;;;;;;;;;;4955524;28;20436;-67
2022/06/13 05:09:29;;;;;;;2.15;1.80;;;;;;;;;;4972994;28;20314;-67
2022/06/13 05:12:33;;;;;;;2.13;1.60;;;;;;;;;;4956194;28;20356;-67
2022/06/13 05:15:01;;;;;;;2.83;1.80;;;;;;;;;;4955380;28;20056;-67
2022/06/13 05:17:58;;;;;;;2.00;1.60;;;;;;;;;;4974744;28;20309;-67
2022/06/13 05:20:26;;;;;;;2.67;1.70;;;;;;;;;;4973352;28;20401;-66
2022/06/13 05:23:10;;;;;;;1.83;1.52;;;;;;;;;;4972785;28;20025;-67
2022/06/13 05:25:46;;;;;;;2.00;1.80;;;;;;;;;;4972610;28;20158;-66
2022/06/13 05:28:15;;;;;;;2.42;1.92;;;;;;;;;;4943092;28;20042;-67
2022/06/13 05:30:46;;;;;;;3.17;1.98;;;;;;;;;;4955225;28;20080;-67
2022/06/13 05:33:14;;;;;;;2.00;1.50;;;;;;;;;;4955052;28;20439;-66
2022/06/13 05:35:44;;;;;;;2.37;1.90;;;;;;;;;;4955339;28;20448;-67
2022/06/13 05:38:15;;;;;;;2.40;1.73;;;;;;;;;;4956095;28;20607;-67
2022/06/13 05:40:40;;;;;;;3.50;1.70;;;;;;;;;;4954784;28;20511;-66
2022/06/13 05:43:06;;;;;;;2.30;1.92;;;;;;;;;;4972738;28;20462;-69
2022/06/13 05:45:31;;;;;;;2.40;1.70;;;;;;;;;;4954912;28;20049;-67
2022/06/13 05:47:57;;;;;;;3.83;1.70;;;;;;;;;;4954650;28;20510;-67
2022/06/13 05:50:29;;;;;;;2.25;1.60;;;;;;;;;;4973864;28;20123;-68
2022/06/13 05:52:55;;;;;;;2.15;1.55;;;;;;;;;;4954526;28;20455;-67
2022/06/13 05:55:21;;;;;;;3.08;2.03;;;;;;;;;;4954942;28;20033;-70
2022/06/13 05:57:46;;;;;;;3.55;1.70;;;;;;;;;;4954439;28;20025;-67
2022/06/13 06:00:19;;;;;;;3.47;1.63;;;;;;;;;;4954366;28;20372;-67
2022/06/13 06:02:44;;;;;;;1.67;1.52;;;;;;;;;;4971999;28;20088;-68
2022/06/13 06:05:10;;;;;;;4.03;1.77;;;;;;;;;;4973398;28;20488;-68
2022/06/13 06:07:36;;;;;;;2.05;1.50;;;;;;;;;;4972526;28;20463;-68
2022/06/13 06:10:02;;;;;;;1.65;1.45;;;;;;;;;;4972202;28;20474;-68
2022/06/13 06:12:27;;;;;;;1.77;1.45;;;;;;;;;;4971709;28;20395;-69
2022/06/13 06:14:52;;;;;;;2.78;1.65;;;;;;;;;;4972124;28;20186;-68
2022/06/13 06:17:18;;;;;;;2.45;1.42;;;;;;;;;;4971975;28;20456;-67
2022/06/13 06:19:43;;;;;;;2.00;1.75;;;;;;;;;;4954139;28;20440;-67
2022/06/13 06:22:08;;;;;;;1.90;1.55;;;;;;;;;;4971772;28;20522;-68
2022/06/13 06:24:34;;;;;;;2.63;1.80;;;;;;;;;;4971421;28;20345;-67
2022/06/13 06:26:59;;;;;;;2.40;1.77;;;;;;;;;;4971597;28;20033;-68
2022/06/13 06:29:24;;;;;;;2.50;1.85;;;;;;;;;;4954488;28;20057;-67
2022/06/13 06:31:50;;;;;;;2.38;1.55;;;;;;;;;;4973226;28;20464;-68
2022/06/13 06:34:16;;;;;;;2.25;1.92;;;;;;;;;;4971538;28;20361;-68
2022/06/13 06:36:41;;;;;;;2.05;1.70;;;;;;;;;;4953679;28;20090;-68
2022/06/13 06:39:06;;;;;;;2.60;1.88;;;;;;;;;;4953746;28;20498;-67
2022/06/13 06:41:33;;;;;;;3.90;2.10;;;;;;;;;;4938312;28;20524;-68
2022/06/13 06:43:58;;;;;;;2.88;1.95;;;;;;;;;;4953423;28;20413;-68
2022/06/13 06:46:24;;;;;;;2.58;2.00;;;;;;;;;;4970930;28;20376;-68
2022/06/13 06:48:51;;;;;;;3.13;1.85;;;;;;;;;;4953555;28;20504;-68
2022/06/13 06:51:17;;;;;;;3.50;2.00;;;;;;;;;;4970848;28;20025;-68
2022/06/13 07:01:55;;;;;;;3.45;1.70;;;;;;;;;;4971773;28;20456;-69
2022/06/13 07:04:20;;;;;;;5.45;2.53;;;;;;;;;;4954106;28;20448;-68
2022/06/13 07:06:46;;;;;;;3.38;2.00;;;;;;;;;;4953215;28;20443;-68
2022/06/13 07:09:11;;;;;;;2.65;1.90;;;;;;;;;;4971371;28;20443;-68
2022/06/13 07:11:56;;;;;;;7.20;2.97;;;;;;;;;;4971465;28;20444;-68
2022/06/13 07:14:26;;;;;;;2.55;1.80;;;;;;;;;;4956186;28;20432;-67
2022/06/13 07:16:52;;;;;;;3.63;2.08;;;;;;;;;;4953073;28;20431;-68
2022/06/13 07:19:18;;;;;;;3.60;2.13;;;;;;;;;;4952890;28;20418;-67
2022/06/13 07:21:43;;;;;;;3.85;2.47;;;;;;;;;;4965897;28;20364;-67
2022/06/13 07:24:10;;;;;;;3.08;1.70;;;;;;;;;;4968756;28;20545;-68
2022/06/13 07:26:36;;;;;;;3.20;2.15;;;;;;;;;;4970665;28;20433;-68
2022/06/13 07:29:02;;;;;;;3.10;2.13;;;;;;;;;;4969371;28;20029;-68
2022/06/13 07:31:40;;;;;;;4.43;2.25;;;;;;;;;;4970534;28;20506;-69
2022/06/13 07:34:11;;;;;;;3.88;2.15;;;;;;;;;;4969527;28;20407;-67
2022/06/13 07:36:37;;;;;;;2.30;1.77;;;;;;;;;;4969148;28;20502;-67
2022/06/13 07:39:02;;;;;;;3.20;1.90;;;;;;;;;;4970294;28;20448;-68
2022/06/13 07:41:28;;;;;;;2.63;1.90;;;;;;;;;;4969124;28;20054;-69
2022/06/13 07:43:55;;;;;;;2.88;1.70;;;;;;;;;;4968666;28;20495;-68
2022/06/13 07:46:24;;;;;;;2.75;1.95;;;;;;;;;;4969191;28;20502;-67
2022/06/13 07:48:50;;;;;;;3.55;2.20;;;;;;;;;;4968738;28;20128;-67
2022/06/13 07:51:15;;;;;;;2.60;1.88;;;;;;;;;;4970145;28;20033;-68
2022/06/13 07:53:40;;;;;;;3.38;2.45;;;;;;;;;;4969960;28;20421;-67
2022/06/13 07:56:06;;;;;;;2.67;1.60;;;;;;;;;;4968953;28;20454;-67
2022/06/13 07:58:34;;;;;;;2.28;1.90;;;;;;;;;;4969866;28;20030;-68
2022/06/13 08:01:00;;;;;;;3.08;1.83;;;;;;;;;;4971826;28;20475;-68
2022/06/13 08:03:28;;;;;;;3.67;1.70;;;;;;;;;;4968385;28;20511;-68
2022/06/13 08:05:55;;;;;;;4.55;3.08;;;;;;;;;;4953249;28;20423;-67
2022/06/13 08:08:20;;;;;;;2.45;1.70;;;;;;;;;;4952314;28;20502;-67
2022/06/13 08:10:46;;;;;;;2.67;1.88;;;;;;;;;;4970652;28;20464;-67
2022/06/13 08:13:13;;;;;;;2.72;1.90;;;;;;;;;;4953091;28;20421;-68
2022/06/13 08:15:38;;;;;;;5.05;2.33;;;;;;;;;;4951800;28;20413;-68
2022/06/13 08:18:04;;;;;;;5.30;1.77;;;;;;;;;;4952124;28;20339;-67
2022/06/13 08:20:29;;;;;;;3.72;1.88;;;;;;;;;;4969335;28;20416;-67
2022/06/13 08:22:58;;;;;;;3.03;1.90;;;;;;;;;;4951609;28;20415;-67
2022/06/13 08:25:28;;;;;;;3.47;1.95;;;;;;;;;;4969714;28;20462;-68
2022/06/13 08:27:56;;;;;;;3.03;2.25;;;;;;;;;;4951940;28;20454;-68
2022/06/13 08:30:21;;;;;;;5.28;2.55;;;;;;;;;;4969539;28;20025;-67
2022/06/13 08:32:46;;;;;;;4.38;2.10;;;;;;;;;;4952198;28;20577;-67
2022/06/13 08:35:14;;;;;;;3.40;2.08;;;;;;;;;;4969542;28;20437;-67
2022/06/13 08:37:39;;;;;;;3.60;1.83;;;;;;;;;;4950748;28;20433;-67
2022/06/13 08:40:05;;;;;;;2.25;1.73;;;;;;;;;;4951625;28;20440;-68
2022/06/13 08:42:55;;;;;;;2.55;1.83;;;;;;;;;;4969960;28;20384;-67
2022/06/13 08:45:22;;;;;;;3.25;1.90;;;;;;;;;;4952352;28;20445;-68
2022/06/13 08:48:09;;;;;;;3.08;1.80;;;;;;;;;;4951631;28;20427;-67
2022/06/13 08:50:53;;;;;;;5.00;2.40;;;;;;;;;;4950998;28;20467;-67
2022/06/13 08:53:39;;;;;;;3.25;1.70;;;;;;;;;;4951731;28;20033;-68
2022/06/13 08:56:08;;;;;;;5.03;2.22;;;;;;;;;;4951675;28;20533;-67
2022/06/13 08:58:37;;;;;;;6.65;2.28;;;;;;;;;;4951062;28;20427;-70
2022/06/13 09:01:17;;;;;;;3.30;2.03;;;;;;;;;;4951385;28;20474;-70
2022/06/13 09:03:45;;;;;;;2.60;1.83;;;;;;;;;;4951121;28;20444;-68
2022/06/13 09:06:16;;;;;;;3.78;2.10;;;;;;;;;;4951725;28;20348;-69
2022/06/13 09:09:06;;;;;;;2.97;1.70;;;;;;;;;;4968935;28;20432;-68
2022/06/13 09:11:37;;;;;;;2.08;1.70;;;;;;;;;;4928785;28;20404;-67
2022/06/13 09:14:11;;;;;;;3.35;1.88;;;;;;;;;;4969091;28;20452;-67
2022/06/13 09:16:38;;;;;;;2.10;1.63;;;;;;;;;;4951057;28;20389;-68
2022/06/13 09:19:21;;;;;;;4.03;2.28;;;;;;;;;;4951690;28;20444;-68
2022/06/13 09:22:21;;;;;;;3.38;1.90;;;;;;;;;;4947985;28;20389;-67
2022/06/13 09:25:09;;;;;;;3.13;2.17;;;;;;;;;;4935583;28;20345;-70
2022/06/13 09:27:54;;;;;;;3.78;1.85;;;;;;;;;;4948153;28;20409;-68
2022/06/13 09:30:23;;;;;;;2.83;1.80;;;;;;;;;;4949573;28;20025;-68
2022/06/13 09:33:05;;;;;;;2.50;1.60;;;;;;;;;;4947980;28;20415;-67
2022/06/13 09:35:55;;;;;;;2.85;1.65;;;;;;;;;;4948107;28;20507;-68
2022/06/13 09:38:42;;;;;;;2.88;2.00;;;;;;;;;;4941684;28;20428;-68
2022/06/13 09:41:21;;;;;;;2.47;1.67;;;;;;;;;;4931374;28;20448;-68
2022/06/13 09:44:01;;;;;;;5.15;1.83;;;;;;;;;;4947670;28;20469;-67
2022/06/13 09:46:55;;;;;;;3.25;1.60;;;;;;;;;;4948633;28;20353;-67
2022/06/13 09:49:46;;;;;;;3.15;2.00;;;;;;;;;;4933540;28;20381;-68
2022/06/13 09:52:15;;;;;;;2.67;1.67;;;;;;;;;;4951465;28;20022;-68
2022/06/13 09:55:41;;;;;;;2.22;1.65;;;;;;;;;;4954318;28;20053;-68
2022/06/13 09:58:29;;;;;;;3.35;1.65;;;;;;;;;;4914203;28;20037;-68
2022/06/13 10:01:03;;;;;;;2.25;1.50;;;;;;;;;;4951456;28;20038;-67
2022/06/13 10:03:43;;;;;;;2.13;1.65;;;;;;;;;;4952544;28;20445;-67
2022/06/13 10:06:20;;;;;;;2.55;1.63;;;;;;;;;;4952450;28;20441;-68
2022/06/13 10:08:51;;;;;;;2.63;1.50;;;;;;;;;;4952296;28;20326;-67
2022/06/13 10:11:25;;;;;;;3.38;1.60;;;;;;;;;;4951224;28;20352;-68
2022/06/13 10:14:11;;;;;;;3.92;1.63;;;;;;;;;;4952187;28;20041;-68
2022/06/13 10:16:54;;;;;;;2.53;1.80;;;;;;;;;;4951699;28;20486;-68
2022/06/13 10:19:35;;;;;;;2.20;1.50;;;;;;;;;;4951160;28;20457;-69
2022/06/13 10:22:06;;;;;;;1.88;1.58;;;;;;;;;;4971724;28;20395;-69
2022/06/13 10:24:49;;;;;;;4.28;1.60;;;;;;;;;;4972197;28;20317;-68
2022/06/13 10:27:43;;;;;;;2.03;1.40;;;;;;;;;;4953757;28;20324;-68
2022/06/13 10:30:28;;;;;;;2.55;1.40;;;;;;;;;;4938983;28;20400;-69
2022/06/13 10:33:14;;;;;;;1.70;1.10;;;;;;;;;;4971734;28;20065;-67
2022/06/13 10:36:09;;;;;;;2.40;1.80;;;;;;;;;;4972381;28;20069;-68
2022/06/13 10:38:41;;;;;;;2.78;1.77;;;;;;;;;;4954668;28;20394;-68
2022/06/13 10:41:07;;;;;;;3.40;1.45;;;;;;;;;;4971714;28;20485;-67
2022/06/13 10:43:32;;;;;;;3.97;1.38;;;;;;;;;;4971691;28;20433;-68
2022/06/13 10:45:58;;;;;;;2.88;1.38;;;;;;;;;;4971819;28;20526;-68
2022/06/13 10:48:54;;;;;;;2.58;1.60;;;;;;;;;;4972943;28;20443;-68
2022/06/13 10:51:19;;;;;;;2.53;1.35;;;;;;;;;;4919766;28;20515;-67
2022/06/13 10:54:01;;;;;;;3.00;1.70;;;;;;;;;;4972307;28;20499;-67
2022/06/13 10:56:33;;;;;;;2.17;1.65;;;;;;;;;;4971348;28;20456;-68
2022/06/13 10:58:58;;;;;;;2.25;1.50;;;;;;;;;;4952561;28;20336;-67
2022/06/13 11:01:26;;;;;;;1.48;1.35;;;;;;;;;;4953804;28;20022;-67
2022/06/13 11:03:59;;;;;;;2.47;1.50;;;;;;;;;;4953681;28;20501;-68
2022/06/13 11:06:31;;;;;;;2.13;1.60;;;;;;;;;;4970668;28;20332;-67
2022/06/13 11:09:03;;;;;;;1.90;1.60;;;;;;;;;;4954092;28;20408;-67
2022/06/13 11:11:34;;;;;;;2.22;1.70;;;;;;;;;;4953068;28;20490;-68
2022/06/13 11:14:00;;;;;;;2.35;1.40;;;;;;;;;;4953181;28;20356;-68
2022/06/13 11:24:58;;;;;;;2.53;1.58;;;;;;;;;;4969509;28;20440;-68
2022/06/13 11:27:41;;;;;;;2.17;1.40;;;;;;;;;;4953339;28;20401;-69
2022/06/13 11:30:31;;;;;;;2.60;1.55;;;;;;;;;;4968912;28;20408;-67
2022/06/13 11:32:59;;;;;;;3.15;1.60;;;;;;;;;;4971218;28;20037;-67
2022/06/13 11:35:38;;;;;;;2.45;1.70;;;;;;;;;;4970725;28;20403;-68
2022/06/13 11:38:14;;;;;;;2.22;1.42;;;;;;;;;;4970367;28;20022;-68
2022/06/13 11:40:41;;;;;;;1.65;1.30;;;;;;;;;;4970892;28;20399;-68
2022/06/13 11:43:37;;;;;;;2.47;1.58;;;;;;;;;;4968863;28;20336;-68
2022/06/13 11:46:07;;;;;;;2.58;1.45;;;;;;;;;;4963670;28;20416;-68
2022/06/13 11:48:33;;;;;;;2.20;1.50;;;;;;;;;;4968812;28;20455;-68
2022/06/13 11:51:02;;;;;;;2.72;1.65;;;;;;;;;;4968726;28;20463;-68
2022/06/13 11:53:37;;;;;;;2.72;1.35;;;;;;;;;;4952509;28;20391;-68
2022/06/13 11:56:24;;;;;;;3.35;1.50;;;;;;;;;;4968866;28;20333;-68
2022/06/13 11:58:51;;;;;;;2.22;1.52;;;;;;;;;;4952201;28;20361;-68
2022/06/13 12:01:36;;;;;;;3.50;1.10;;;;;;;;;;4970131;28;20407;-68
2022/06/13 12:04:13;;;;;;;1.65;1.40;;;;;;;;;;4951731;28;20396;-68
2022/06/13 12:06:42;;;;;;;2.97;1.55;;;;;;;;;;4969730;28;20439;-68
2022/06/13 12:09:31;;;;;;;2.58;1.45;;;;;;;;;;4970156;28;20599;-68
2022/06/13 12:12:02;;;;;;;4.32;1.30;;;;;;;;;;4952293;28;20335;-67
2022/06/13 12:14:29;;;;;;;2.75;1.50;;;;;;;;;;4970523;28;20486;-67
2022/06/13 12:17:08;;;;;;;1.65;1.20;;;;;;;;;;4951888;28;20093;-69
2022/06/13 12:20:09;;;;;;;3.22;1.70;;;;;;;;;;4968621;28;20332;-67
2022/06/13 12:22:41;;;;;;;1.67;1.38;;;;;;;;;;4964841;28;20452;-67
2022/06/13 12:25:09;;;;;;;2.33;1.65;;;;;;;;;;4950325;28;20095;-67
2022/06/13 12:27:58;;;;;;;5.18;1.48;;;;;;;;;;4950519;28;20109;-68
2022/06/13 12:30:33;;;;;;;4.88;1.58;;;;;;;;;;4948640;28;20116;-66
2022/06/13 12:33:07;;;;;;;3.13;1.50;;;;;;;;;;4950064;28;20113;-67
2022/06/13 12:35:38;;;;;;;2.03;1.40;;;;;;;;;;4965044;28;20321;-68
2022/06/13 12:38:45;;;;;;;1.90;1.20;;;;;;;;;;4950406;28;20344;-69
2022/06/13 12:41:13;;;;;;;4.30;1.40;;;;;;;;;;4917232;28;20341;-67
2022/06/13 12:43:52;;;;;;;2.47;1.40;;;;;;;;;;4950082;28;20348;-68
2022/06/13 12:46:27;;;;;;;2.35;1.63;;;;;;;;;;4950073;28;20451;-67
2022/06/13 12:48:59;;;;;;;2.20;1.40;;;;;;;;;;4965311;28;20025;-67
2022/06/13 12:51:33;;;;;;;1.50;1.00;;;;;;;;;;4949812;28;20429;-67
2022/06/13 12:54:19;;;;;;;1.67;1.15;;;;;;;;;;4949810;28;20352;-67
2022/06/13 12:56:51;;;;;;;1.60;1.17;;;;;;;;;;4950534;28;20313;-67
2022/06/13 12:59:46;;;;;;;3.80;1.20;;;;;;;;;;4964751;28;20030;-68
2022/06/13 13:02:39;;;;;;;2.22;1.40;;;;;;;;;;4942586;28;20487;-67
2022/06/13 13:05:14;;;;;;;2.00;1.35;;;;;;;;;;4964383;28;20495;-67
2022/06/13 13:07:51;;;;;;;2.30;1.35;;;;;;;;;;4964156;28;20360;-68
2022/06/13 13:10:25;;;;;;;2.60;1.40;;;;;;;;;;4951231;28;20026;-68
2022/06/13 13:12:50;;;;;;;1.85;1.63;;;;;;;;;;4964464;28;20413;-67
2022/06/13 13:15:22;;;;;;;1.77;1.42;;;;;;;;;;4949922;28;20457;-67
2022/06/13 13:17:59;;;;;;;2.47;1.25;;;;;;;;;;4951459;28;20492;-67
2022/06/13 13:20:40;;;;;;;3.90;1.33;;;;;;;;;;4954362;28;20532;-68
2022/06/13 13:23:12;;;;;;;2.03;1.25;;;;;;;;;;4970897;28;20452;-67
2022/06/13 13:26:13;;;;;;;2.13;1.60;;;;;;;;;;4955553;28;20092;-68
2022/06/13 13:28:44;;;;;;;2.20;1.23;;;;;;;;;;4946995;28;20041;-67
2022/06/13 13:31:21;;;;;;;2.97;1.52;;;;;;;;;;4972859;28;20475;-68
2022/06/13 13:33:57;;;;;;;1.75;1.38;;;;;;;;;;4972419;28;20448;-67
2022/06/13 13:36:35;;;;;;;1.80;1.20;;;;;;;;;;4970951;28;20455;-68
2022/06/13 13:39:18;;;;;;;1.27;1.00;;;;;;;;;;4973447;28;20022;-68
2022/06/13 13:41:52;;;;;;;2.35;1.50;;;;;;;;;;4954459;28;20493;-68
2022/06/13 13:44:25;;;;;;;1.92;1.40;;;;;;;;;;4954760;28;20457;-68
2022/06/13 13:47:20;;;;;;;1.73;1.20;;;;;;;;;;4955460;28;20334;-68
2022/06/13 13:50:16;;;;;;;1.75;1.15;;;;;;;;;;4954262;28;20554;-68
2022/06/13 13:52:48;;;;;;;2.08;1.30;;;;;;;;;;4939338;28;20084;-68
2022/06/13 13:55:19;;;;;;;2.47;1.15;;;;;;;;;;4954669;28;20395;-68
2022/06/13 13:57:58;;;;;;;3.58;1.40;;;;;;;;;;4954753;28;20440;-68
2022/06/13 14:00:27;;;;;;;;;;;;;;;;;;4955295;28;20425;-68
2022/06/13 14:02:58;;;;;;;;;;;;;;;;;;4955350;28;20236;-68
2022/06/13 14:05:33;;;;;;;1.20;1.10;;;;;;;;;;4973105;28;19964;-69
2022/06/13 14:08:22;;;;;;;1.80;1.17;;;;;;;;;;4954530;28;20452;-67
2022/06/13 14:10:51;;;;;;;1.52;1.27;;;;;;;;;;4942876;28;20467;-68
2022/06/13 14:13:21;;;;;;;2.50;1.48;;;;;;;;;;4954684;28;20459;-70
2022/06/13 14:15:49;;;;;;;1.77;1.30;;;;;;;;;;4953840;28;20475;-69
2022/06/13 14:18:38;;;;;;;2.22;1.30;;;;;;;;;;4954265;28;20325;-70
2022/06/13 14:21:36;;;;;;;1.83;1.30;;;;;;;;;;4971404;28;20065;-69
2022/06/13 14:24:10;;;;;;;1.83;1.40;;;;;;;;;;4954484;28;20487;-69
2022/06/13 14:26:44;;;;;;;1.63;1.10;;;;;;;;;;4972301;28;20424;-69
2022/06/13 14:29:12;;;;;;;3.13;1.88;;;;;;;;;;4954073;28;20460;-69
2022/06/13 14:31:54;;;;;;;1.77;1.17;;;;;;;;;;4971581;28;20129;-69
2022/06/13 14:37:50;;;;;;;1.38;1.15;;;;;;;;;;4971869;28;20443;-69
2022/06/13 14:40:30;;;;;;;1.70;1.30;;;;;;;;;;4973861;28;20454;-70
2022/06/13 14:42:57;;;;;;;2.10;1.13;;;;;;;;;;4971973;28;20540;-68
2022/06/13 14:45:46;;;;;;;1.77;1.25;;;;;;;;;;4953707;28;20451;-68
2022/06/13 14:48:42;;;;;;;1.52;1.10;;;;;;;;;;4937652;28;20387;-68
2022/06/13 14:51:13;;;;;;;2.63;1.55;;;;;;;;;;4938101;28;20398;-68
2022/06/13 14:53:51;;;;;;;2.05;1.27;;;;;;;;;;4971857;28;20052;-68
2022/06/13 14:56:16;;;;;;;2.33;1.10;;;;;;;;;;4971241;28;20424;-68
2022/06/13 15:01:19;;;;;;;3.45;1.20;;;;;;;;;;4971472;28;20344;-68
2022/06/13 15:04:03;;;;;;;1.77;1.20;;;;;;;;;;4971334;28;20467;-68
2022/06/13 15:06:32;;;;;;;3.95;1.20;;;;;;;;;;4971179;28;20412;-68
2022/06/13 15:09:31;;;;;;;2.53;1.30;;;;;;;;;;4970790;28;20486;-68
2022/06/13 15:12:04;;;;;;;2.40;1.17;;;;;;;;;;4952783;28;20427;-68
2022/06/13 15:14:37;;;;;;;4.20;1.38;;;;;;;;;;4952817;28;20506;-68
2022/06/13 15:17:04;;;;;;;1.33;1.00;;;;;;;;;;4953222;28;20433;-68
2022/06/13 15:19:34;;;;;;;1.45;0.98;;;;;;;;;;4952622;28;20506;-68
2022/06/13 15:22:02;;;;;;;1.02;0.88;;;;;;;;;;4966772;28;20336;-68
2022/06/13 15:24:42;;;;;;;1.77;1.20;;;;;;;;;;4971731;28;20401;-68
2022/06/13 15:27:07;;;;;;;0.90;0.85;;;;;;;;;;4970464;28;20139;-69
2022/06/13 15:29:35;;;;;;;1.60;1.10;;;;;;;;;;4968928;28;20033;-69
2022/06/13 15:32:29;;;;;;;1.63;1.17;;;;;;;;;;4970480;28;20432;-68
2022/06/13 15:34:57;;;;;;;2.00;1.17;;;;;;;;;;4969502;28;20325;-68
2022/06/13 15:37:23;;;;;;;1.30;1.10;;;;;;;;;;4969224;28;20353;-68
2022/06/13 15:39:48;;;;;;;1.38;0.90;;;;;;;;;;4953329;28;20352;-68
2022/06/13 15:42:23;;;;;;;3.72;1.17;;;;;;;;;;4972415;28;20356;-68
2022/06/13 15:44:49;;;;;;;3.63;1.55;;;;;;;;;;4969881;28;20132;-69
2022/06/13 15:47:15;;;;;;;1.25;1.13;;;;;;;;;;4969969;28;20125;-69
2022/06/13 15:49:43;;;;;;;1.38;1.05;;;;;;;;;;4968749;28;20417;-68
2022/06/13 15:52:08;;;;;;;1.92;1.08;;;;;;;;;;4970279;28;20384;-68